sensor_id;sensor_type;location;lat;lon;timestamp;temperature;humidity
12761;DHT22;6444;49.742;6.114;2024-02-28T00:00:15;5.80;99.90
12761;DHT22;6444;49.742;6.114;2024-02-28T00:02:41;5.70;99.90
12761;DHT22;6444;49.742;6.114;2024-02-28T00:05:08;5.80;99.90
12761;DHT22;6444;49.742;6.114;2024-02-28T00:07:35;5.70;99.90
12761;DHT22;6444;49.742;6.114;2024-02-28T00:10:01;5.80;99.90
12761;DHT22;6444;49.742;6.114;2024-02-28T00:12:28;6.00;99.90
12761;DHT22;6444;49.742;6.114;2024-02-28T00:14:55;6.00;99.90
12761;DHT22;6444;49.742;6.114;2024-02-28T00:17:21;5.90;99.90
12761;DHT22;6444;49.742;6.114;2024-02-28T00:19:48;6.40;99.90
12761;DHT22;6444;49.742;6.114;2024-02-28T00:22:14;6.50;99.90
12761;DHT22;6444;49.742;6.114;2024-02-28T00:24:41;6.80;99.90
12761;DHT22;6444;49.742;6.114;2024-02-28T00:27:08;6.90;99.90
12761;DHT22;6444;49.742;6.114;2024-02-28T00:29:34;6.90;99.90
12761;DHT22;6444;49.742;6.114;2024-02-28T00:32:01;6.90;99.90
12761;DHT22;6444;49.742;6.114;2024-02-28T00:34:28;7.10;99.90
12761;DHT22;6444;49.742;6.114;2024-02-28T00:36:54;6.90;99.90
12761;DHT22;6444;49.742;6.114;2024-02-28T00:39:21;6.90;99.90
12761;DHT22;6444;49.742;6.114;2024-02-28T00:41:47;7.10;99.90
12761;DHT22;6444;49.742;6.114;2024-02-28T00:44:15;7.60;99.90
12761;DHT22;6444;49.742;6.114;2024-02-28T00:46:41;7.80;99.90
12761;DHT22;6444;49.742;6.114;2024-02-28T00:49:07;8.00;99.90
12761;DHT22;6444;49.742;6.114;2024-02-28T00:51:34;8.10;99.90
12761;DHT22;6444;49.742;6.114;2024-02-28T00:54:01;8.10;99.90
12761;DHT22;6444;49.742;6.114;2024-02-28T00:56:28;8.30;99.90
12761;DHT22;6444;49.742;6.114;2024-02-28T00:58:55;8.30;99.90
12761;DHT22;6444;49.742;6.114;2024-02-28T01:01:22;8.50;99.90
12761;DHT22;6444;49.742;6.114;2024-02-28T01:03:48;8.50;99.90
12761;DHT22;6444;49.742;6.114;2024-02-28T01:06:15;8.10;99.90
12761;DHT22;6444;49.742;6.114;2024-02-28T01:08:41;8.20;99.90
12761;DHT22;6444;49.742;6.114;2024-02-28T01:11:08;8.20;99.90
12761;DHT22;6444;49.742;6.114;2024-02-28T01:13:35;8.30;99.90
12761;DHT22;6444;49.742;6.114;2024-02-28T01:16:01;8.20;99.90
12761;DHT22;6444;49.742;6.114;2024-02-28T01:18:29;8.60;99.90
12761;DHT22;6444;49.742;6.114;2024-02-28T01:20:55;8.60;99.90
12761;DHT22;6444;49.742;6.114;2024-02-28T01:23:22;8.80;99.90
12761;DHT22;6444;49.742;6.114;2024-02-28T01:25:48;8.90;99.90
12761;DHT22;6444;49.742;6.114;2024-02-28T01:28:15;9.00;99.90
12761;DHT22;6444;49.742;6.114;2024-02-28T01:30:42;8.30;99.90
12761;DHT22;6444;49.742;6.114;2024-02-28T01:33:09;8.30;99.90
12761;DHT22;6444;49.742;6.114;2024-02-28T01:35:36;8.30;99.90
12761;DHT22;6444;49.742;6.114;2024-02-28T01:38:02;8.60;99.90
12761;DHT22;6444;49.742;6.114;2024-02-28T01:40:29;8.80;99.90
12761;DHT22;6444;49.742;6.114;2024-02-28T01:43:02;9.00;99.90
12761;DHT22;6444;49.742;6.114;2024-02-28T01:45:23;8.90;99.90
12761;DHT22;6444;49.742;6.114;2024-02-28T01:47:50;8.90;99.90
12761;DHT22;6444;49.742;6.114;2024-02-28T01:50:16;9.00;99.90
12761;DHT22;6444;49.742;6.114;2024-02-28T01:52:43;9.10;99.90
12761;DHT22;6444;49.742;6.114;2024-02-28T01:55:10;9.20;99.90
12761;DHT22;6444;49.742;6.114;2024-02-28T01:57:37;9.10;99.90
12761;DHT22;6444;49.742;6.114;2024-02-28T02:00:05;9.10;99.90
12761;DHT22;6444;49.742;6.114;2024-02-28T02:02:31;9.10;99.90
12761;DHT22;6444;49.742;6.114;2024-02-28T02:04:57;9.00;99.90
12761;DHT22;6444;49.742;6.114;2024-02-28T02:07:24;8.30;99.90
12761;DHT22;6444;49.742;6.114;2024-02-28T02:09:51;8.50;99.90
12761;DHT22;6444;49.742;6.114;2024-02-28T02:12:17;8.60;99.90
12761;DHT22;6444;49.742;6.114;2024-02-28T02:14:50;8.80;99.90
12761;DHT22;6444;49.742;6.114;2024-02-28T02:17:16;8.40;99.90
12761;DHT22;6444;49.742;6.114;2024-02-28T02:19:43;8.50;99.90
12761;DHT22;6444;49.742;6.114;2024-02-28T02:22:10;8.20;99.90
12761;DHT22;6444;49.742;6.114;2024-02-28T02:24:37;8.20;99.90
12761;DHT22;6444;49.742;6.114;2024-02-28T02:27:03;8.50;99.90
12761;DHT22;6444;49.742;6.114;2024-02-28T02:29:30;8.90;99.90
12761;DHT22;6444;49.742;6.114;2024-02-28T02:31:57;8.60;99.90
12761;DHT22;6444;49.742;6.114;2024-02-28T02:34:24;8.30;99.90
12761;DHT22;6444;49.742;6.114;2024-02-28T02:36:51;8.20;99.90
12761;DHT22;6444;49.742;6.114;2024-02-28T02:39:19;8.60;99.90
12761;DHT22;6444;49.742;6.114;2024-02-28T02:41:46;8.60;99.90
12761;DHT22;6444;49.742;6.114;2024-02-28T02:44:13;8.30;99.90
12761;DHT22;6444;49.742;6.114;2024-02-28T02:46:39;8.60;99.90
12761;DHT22;6444;49.742;6.114;2024-02-28T02:49:06;8.90;99.90
12761;DHT22;6444;49.742;6.114;2024-02-28T02:51:33;9.20;99.90
12761;DHT22;6444;49.742;6.114;2024-02-28T02:53:59;9.30;99.90
12761;DHT22;6444;49.742;6.114;2024-02-28T02:56:27;9.40;99.90
12761;DHT22;6444;49.742;6.114;2024-02-28T02:58:53;9.40;99.90
12761;DHT22;6444;49.742;6.114;2024-02-28T03:01:20;9.40;99.90
12761;DHT22;6444;49.742;6.114;2024-02-28T03:03:47;9.10;99.90
12761;DHT22;6444;49.742;6.114;2024-02-28T03:06:13;8.60;99.90
12761;DHT22;6444;49.742;6.114;2024-02-28T03:08:40;8.80;99.90
12761;DHT22;6444;49.742;6.114;2024-02-28T03:11:06;9.00;99.90
12761;DHT22;6444;49.742;6.114;2024-02-28T03:13:33;9.20;99.90
12761;DHT22;6444;49.742;6.114;2024-02-28T03:16:00;9.30;99.90
12761;DHT22;6444;49.742;6.114;2024-02-28T03:18:26;8.00;99.90
12761;DHT22;6444;49.742;6.114;2024-02-28T03:20:53;7.50;99.90
12761;DHT22;6444;49.742;6.114;2024-02-28T03:23:20;7.50;99.90
12761;DHT22;6444;49.742;6.114;2024-02-28T03:25:46;7.90;99.90
12761;DHT22;6444;49.742;6.114;2024-02-28T03:28:13;8.20;99.90
12761;DHT22;6444;49.742;6.114;2024-02-28T03:30:40;8.60;99.90
12761;DHT22;6444;49.742;6.114;2024-02-28T03:33:07;8.50;99.90
12761;DHT22;6444;49.742;6.114;2024-02-28T03:35:33;8.50;99.90
12761;DHT22;6444;49.742;6.114;2024-02-28T03:38:00;8.80;99.90
12761;DHT22;6444;49.742;6.114;2024-02-28T03:40:27;8.50;99.90
12761;DHT22;6444;49.742;6.114;2024-02-28T03:42:53;8.80;99.90
12761;DHT22;6444;49.742;6.114;2024-02-28T03:45:20;8.90;99.90
12761;DHT22;6444;49.742;6.114;2024-02-28T03:47:47;9.00;99.90
12761;DHT22;6444;49.742;6.114;2024-02-28T03:50:13;9.00;99.90
12761;DHT22;6444;49.742;6.114;2024-02-28T03:52:40;9.20;99.90
12761;DHT22;6444;49.742;6.114;2024-02-28T03:55:07;8.40;99.90
12761;DHT22;6444;49.742;6.114;2024-02-28T03:57:33;8.50;99.90
12761;DHT22;6444;49.742;6.114;2024-02-28T04:00:01;8.60;99.90
12761;DHT22;6444;49.742;6.114;2024-02-28T04:02:26;8.80;99.90
12761;DHT22;6444;49.742;6.114;2024-02-28T04:04:53;8.90;99.90
12761;DHT22;6444;49.742;6.114;2024-02-28T04:07:20;8.90;99.90
12761;DHT22;6444;49.742;6.114;2024-02-28T04:09:47;9.00;99.90
12761;DHT22;6444;49.742;6.114;2024-02-28T04:12:14;9.00;99.90
12761;DHT22;6444;49.742;6.114;2024-02-28T04:14:40;9.10;99.90
12761;DHT22;6444;49.742;6.114;2024-02-28T04:17:07;8.20;99.90
12761;DHT22;6444;49.742;6.114;2024-02-28T04:19:34;8.10;99.90
12761;DHT22;6444;49.742;6.114;2024-02-28T04:22:01;8.80;99.90
12761;DHT22;6444;49.742;6.114;2024-02-28T04:24:28;8.70;99.90
12761;DHT22;6444;49.742;6.114;2024-02-28T04:26:54;8.90;99.90
12761;DHT22;6444;49.742;6.114;2024-02-28T04:29:21;9.00;99.90
12761;DHT22;6444;49.742;6.114;2024-02-28T04:31:48;9.20;99.90
12761;DHT22;6444;49.742;6.114;2024-02-28T04:34:15;9.10;99.90
12761;DHT22;6444;49.742;6.114;2024-02-28T04:36:41;9.10;99.90
12761;DHT22;6444;49.742;6.114;2024-02-28T04:39:08;9.00;99.90
12761;DHT22;6444;49.742;6.114;2024-02-28T04:41:35;9.00;99.90
12761;DHT22;6444;49.742;6.114;2024-02-28T04:44:02;8.60;99.90
12761;DHT22;6444;49.742;6.114;2024-02-28T04:46:29;8.50;99.90
12761;DHT22;6444;49.742;6.114;2024-02-28T04:48:55;8.70;99.90
12761;DHT22;6444;49.742;6.114;2024-02-28T04:51:22;8.60;99.90
12761;DHT22;6444;49.742;6.114;2024-02-28T04:53:49;8.80;99.90
12761;DHT22;6444;49.742;6.114;2024-02-28T04:56:15;9.00;99.90
12761;DHT22;6444;49.742;6.114;2024-02-28T04:58:42;9.10;99.90
12761;DHT22;6444;49.742;6.114;2024-02-28T05:01:08;9.10;99.90
12761;DHT22;6444;49.742;6.114;2024-02-28T05:03:35;9.10;99.90
12761;DHT22;6444;49.742;6.114;2024-02-28T05:06:02;8.80;99.90
12761;DHT22;6444;49.742;6.114;2024-02-28T05:08:28;9.10;99.90
12761;DHT22;6444;49.742;6.114;2024-02-28T05:10:55;8.90;99.90
12761;DHT22;6444;49.742;6.114;2024-02-28T05:13:22;8.70;99.90
12761;DHT22;6444;49.742;6.114;2024-02-28T05:15:48;8.50;99.90
12761;DHT22;6444;49.742;6.114;2024-02-28T05:18:15;8.30;99.90
12761;DHT22;6444;49.742;6.114;2024-02-28T05:20:42;8.40;99.90
12761;DHT22;6444;49.742;6.114;2024-02-28T05:23:08;8.60;99.90
12761;DHT22;6444;49.742;6.114;2024-02-28T05:25:35;8.90;99.90
12761;DHT22;6444;49.742;6.114;2024-02-28T05:28:02;9.00;99.90
12761;DHT22;6444;49.742;6.114;2024-02-28T05:30:28;9.10;99.90
12761;DHT22;6444;49.742;6.114;2024-02-28T05:32:55;9.00;99.90
12761;DHT22;6444;49.742;6.114;2024-02-28T05:35:22;8.90;99.90
12761;DHT22;6444;49.742;6.114;2024-02-28T05:37:52;8.70;99.90
12761;DHT22;6444;49.742;6.114;2024-02-28T05:40:16;8.50;99.90
12761;DHT22;6444;49.742;6.114;2024-02-28T05:42:42;8.50;99.90
12761;DHT22;6444;49.742;6.114;2024-02-28T05:45:09;8.50;99.90
12761;DHT22;6444;49.742;6.114;2024-02-28T05:47:36;8.50;99.90
12761;DHT22;6444;49.742;6.114;2024-02-28T05:50:02;8.50;99.90
12761;DHT22;6444;49.742;6.114;2024-02-28T05:52:29;8.30;99.90
12761;DHT22;6444;49.742;6.114;2024-02-28T05:54:55;6.90;99.90
12761;DHT22;6444;49.742;6.114;2024-02-28T05:57:22;6.30;99.90
12761;DHT22;6444;49.742;6.114;2024-02-28T05:59:49;5.90;99.90
12761;DHT22;6444;49.742;6.114;2024-02-28T06:02:16;6.10;99.90
12761;DHT22;6444;49.742;6.114;2024-02-28T06:04:43;6.10;99.90
12761;DHT22;6444;49.742;6.114;2024-02-28T06:07:09;7.10;99.90
12761;DHT22;6444;49.742;6.114;2024-02-28T06:09:36;7.80;99.90
12761;DHT22;6444;49.742;6.114;2024-02-28T06:12:03;8.00;99.90
12761;DHT22;6444;49.742;6.114;2024-02-28T06:14:29;8.30;99.90
12761;DHT22;6444;49.742;6.114;2024-02-28T06:16:56;8.30;99.90
12761;DHT22;6444;49.742;6.114;2024-02-28T06:19:23;8.10;99.90
12761;DHT22;6444;49.742;6.114;2024-02-28T06:21:50;8.30;99.90
12761;DHT22;6444;49.742;6.114;2024-02-28T06:24:17;8.30;99.90
12761;DHT22;6444;49.742;6.114;2024-02-28T06:26:43;8.50;99.90
12761;DHT22;6444;49.742;6.114;2024-02-28T06:29:10;7.50;99.90
12761;DHT22;6444;49.742;6.114;2024-02-28T06:31:36;7.30;99.90
12761;DHT22;6444;49.742;6.114;2024-02-28T06:34:04;8.20;99.90
12761;DHT22;6444;49.742;6.114;2024-02-28T06:36:31;8.20;99.90
12761;DHT22;6444;49.742;6.114;2024-02-28T06:38:57;8.30;99.90
12761;DHT22;6444;49.742;6.114;2024-02-28T06:41:24;8.00;99.90
12761;DHT22;6444;49.742;6.114;2024-02-28T06:43:51;7.70;99.90
12761;DHT22;6444;49.742;6.114;2024-02-28T06:46:18;7.60;99.90
12761;DHT22;6444;49.742;6.114;2024-02-28T06:48:44;7.70;99.90
12761;DHT22;6444;49.742;6.114;2024-02-28T06:51:11;7.70;99.90
12761;DHT22;6444;49.742;6.114;2024-02-28T06:53:38;8.30;99.90
12761;DHT22;6444;49.742;6.114;2024-02-28T06:56:05;8.30;99.90
12761;DHT22;6444;49.742;6.114;2024-02-28T06:58:32;8.40;99.90
12761;DHT22;6444;49.742;6.114;2024-02-28T07:00:58;8.40;99.90
12761;DHT22;6444;49.742;6.114;2024-02-28T07:03:26;8.40;99.90
12761;DHT22;6444;49.742;6.114;2024-02-28T07:05:52;8.40;99.90
12761;DHT22;6444;49.742;6.114;2024-02-28T07:08:19;8.50;99.90
12761;DHT22;6444;49.742;6.114;2024-02-28T07:10:46;8.70;99.90
12761;DHT22;6444;49.742;6.114;2024-02-28T07:13:12;8.80;99.90
12761;DHT22;6444;49.742;6.114;2024-02-28T07:15:39;8.90;99.90
12761;DHT22;6444;49.742;6.114;2024-02-28T07:18:05;8.60;99.90
12761;DHT22;6444;49.742;6.114;2024-02-28T07:20:32;8.40;99.90
12761;DHT22;6444;49.742;6.114;2024-02-28T07:22:59;8.70;99.90
12761;DHT22;6444;49.742;6.114;2024-02-28T07:25:25;8.90;99.90
12761;DHT22;6444;49.742;6.114;2024-02-28T07:27:52;9.00;99.90
12761;DHT22;6444;49.742;6.114;2024-02-28T07:30:19;9.10;99.90
12761;DHT22;6444;49.742;6.114;2024-02-28T07:32:45;9.00;99.90
12761;DHT22;6444;49.742;6.114;2024-02-28T07:35:12;8.40;99.90
12761;DHT22;6444;49.742;6.114;2024-02-28T07:37:38;7.50;99.90
12761;DHT22;6444;49.742;6.114;2024-02-28T07:40:05;7.60;99.90
12761;DHT22;6444;49.742;6.114;2024-02-28T07:42:32;7.90;99.90
12761;DHT22;6444;49.742;6.114;2024-02-28T07:44:58;8.30;99.90
12761;DHT22;6444;49.742;6.114;2024-02-28T07:47:25;8.60;99.90
12761;DHT22;6444;49.742;6.114;2024-02-28T07:49:52;8.30;99.90
12761;DHT22;6444;49.742;6.114;2024-02-28T07:52:18;8.40;99.90
12761;DHT22;6444;49.742;6.114;2024-02-28T07:54:45;8.70;99.90
12761;DHT22;6444;49.742;6.114;2024-02-28T07:57:13;8.50;99.90
12761;DHT22;6444;49.742;6.114;2024-02-28T07:59:42;8.40;99.90
12761;DHT22;6444;49.742;6.114;2024-02-28T08:02:09;7.50;99.90
12761;DHT22;6444;49.742;6.114;2024-02-28T08:04:35;7.40;99.90
12761;DHT22;6444;49.742;6.114;2024-02-28T08:07:02;8.00;99.90
12761;DHT22;6444;49.742;6.114;2024-02-28T08:09:29;7.80;99.90
12761;DHT22;6444;49.742;6.114;2024-02-28T08:11:56;7.80;99.90
12761;DHT22;6444;49.742;6.114;2024-02-28T08:14:23;7.50;99.90
12761;DHT22;6444;49.742;6.114;2024-02-28T08:16:49;7.50;99.90
12761;DHT22;6444;49.742;6.114;2024-02-28T08:19:16;8.10;99.90
12761;DHT22;6444;49.742;6.114;2024-02-28T08:21:43;8.20;99.90
12761;DHT22;6444;49.742;6.114;2024-02-28T08:24:10;7.60;99.90
12761;DHT22;6444;49.742;6.114;2024-02-28T08:26:37;7.60;99.90
12761;DHT22;6444;49.742;6.114;2024-02-28T08:29:03;8.30;99.90
12761;DHT22;6444;49.742;6.114;2024-02-28T08:31:30;8.90;99.90
12761;DHT22;6444;49.742;6.114;2024-02-28T08:33:57;9.30;99.90
12761;DHT22;6444;49.742;6.114;2024-02-28T08:36:23;9.70;99.90
12761;DHT22;6444;49.742;6.114;2024-02-28T08:38:51;9.80;99.90
12761;DHT22;6444;49.742;6.114;2024-02-28T08:41:17;9.80;99.90
12761;DHT22;6444;49.742;6.114;2024-02-28T08:43:44;9.90;99.90
12761;DHT22;6444;49.742;6.114;2024-02-28T08:46:13;9.90;99.90
12761;DHT22;6444;49.742;6.114;2024-02-28T08:48:40;9.90;99.90
12761;DHT22;6444;49.742;6.114;2024-02-28T08:51:07;10.00;99.90
12761;DHT22;6444;49.742;6.114;2024-02-28T08:53:34;10.00;99.90
12761;DHT22;6444;49.742;6.114;2024-02-28T08:56:01;10.10;99.90
12761;DHT22;6444;49.742;6.114;2024-02-28T08:58:27;10.10;99.90
12761;DHT22;6444;49.742;6.114;2024-02-28T09:00:54;9.90;99.90
12761;DHT22;6444;49.742;6.114;2024-02-28T09:03:21;9.70;99.90
12761;DHT22;6444;49.742;6.114;2024-02-28T09:05:48;9.70;99.90
12761;DHT22;6444;49.742;6.114;2024-02-28T09:08:15;9.70;99.90
12761;DHT22;6444;49.742;6.114;2024-02-28T09:10:41;9.70;99.90
12761;DHT22;6444;49.742;6.114;2024-02-28T09:13:08;9.80;99.90
12761;DHT22;6444;49.742;6.114;2024-02-28T09:15:35;10.00;99.90
12761;DHT22;6444;49.742;6.114;2024-02-28T09:18:02;10.00;99.90
12761;DHT22;6444;49.742;6.114;2024-02-28T09:20:29;9.60;99.90
12761;DHT22;6444;49.742;6.114;2024-02-28T09:22:55;9.80;99.90
12761;DHT22;6444;49.742;6.114;2024-02-28T09:25:22;9.20;99.90
12761;DHT22;6444;49.742;6.114;2024-02-28T09:27:49;8.90;99.90
12761;DHT22;6444;49.742;6.114;2024-02-28T09:30:15;9.30;99.90
12761;DHT22;6444;49.742;6.114;2024-02-28T09:32:43;10.00;99.90
12761;DHT22;6444;49.742;6.114;2024-02-28T09:35:10;10.00;99.90
12761;DHT22;6444;49.742;6.114;2024-02-28T09:37:36;9.20;99.90
12761;DHT22;6444;49.742;6.114;2024-02-28T09:40:03;8.70;99.90
12761;DHT22;6444;49.742;6.114;2024-02-28T09:42:30;9.00;99.90
12761;DHT22;6444;49.742;6.114;2024-02-28T09:44:57;9.60;99.90
12761;DHT22;6444;49.742;6.114;2024-02-28T09:47:23;10.00;99.90
12761;DHT22;6444;49.742;6.114;2024-02-28T09:49:50;10.20;99.90
12761;DHT22;6444;49.742;6.114;2024-02-28T09:52:16;9.40;99.90
12761;DHT22;6444;49.742;6.114;2024-02-28T09:54:43;9.70;99.90
12761;DHT22;6444;49.742;6.114;2024-02-28T09:57:11;9.60;99.90
12761;DHT22;6444;49.742;6.114;2024-02-28T09:59:37;10.10;99.90
12761;DHT22;6444;49.742;6.114;2024-02-28T10:02:03;10.80;99.90
12761;DHT22;6444;49.742;6.114;2024-02-28T10:04:31;11.00;99.90
12761;DHT22;6444;49.742;6.114;2024-02-28T10:06:59;11.00;99.90
12761;DHT22;6444;49.742;6.114;2024-02-28T10:09:24;11.30;99.90
12761;DHT22;6444;49.742;6.114;2024-02-28T10:11:51;11.50;99.90
12761;DHT22;6444;49.742;6.114;2024-02-28T10:14:18;10.90;99.90
12761;DHT22;6444;49.742;6.114;2024-02-28T10:16:44;10.30;99.90
12761;DHT22;6444;49.742;6.114;2024-02-28T10:19:11;10.10;99.90
12761;DHT22;6444;49.742;6.114;2024-02-28T10:21:37;10.80;99.90
12761;DHT22;6444;49.742;6.114;2024-02-28T10:24:04;11.40;99.90
12761;DHT22;6444;49.742;6.114;2024-02-28T10:26:31;12.20;99.90
12761;DHT22;6444;49.742;6.114;2024-02-28T10:28:58;12.10;99.90
12761;DHT22;6444;49.742;6.114;2024-02-28T10:31:25;12.60;99.90
12761;DHT22;6444;49.742;6.114;2024-02-28T10:33:51;13.00;99.90
12761;DHT22;6444;49.742;6.114;2024-02-28T10:36:18;12.40;99.90
12761;DHT22;6444;49.742;6.114;2024-02-28T10:38:44;11.30;99.90
12761;DHT22;6444;49.742;6.114;2024-02-28T10:41:11;12.50;99.90
12761;DHT22;6444;49.742;6.114;2024-02-28T10:43:38;14.30;99.90
12761;DHT22;6444;49.742;6.114;2024-02-28T10:46:05;16.30;99.90
12761;DHT22;6444;49.742;6.114;2024-02-28T10:48:32;16.30;99.90
12761;DHT22;6444;49.742;6.114;2024-02-28T10:50:58;15.50;99.90
12761;DHT22;6444;49.742;6.114;2024-02-28T10:53:37;15.50;99.90
12761;DHT22;6444;49.742;6.114;2024-02-28T10:56:04;15.90;99.90
12761;DHT22;6444;49.742;6.114;2024-02-28T10:58:34;15.10;99.90
12761;DHT22;6444;49.742;6.114;2024-02-28T11:00:58;15.10;99.90
12761;DHT22;6444;49.742;6.114;2024-02-28T11:03:24;15.50;99.90
12761;DHT22;6444;49.742;6.114;2024-02-28T11:05:51;16.10;99.90
12761;DHT22;6444;49.742;6.114;2024-02-28T11:08:21;16.80;99.90
12761;DHT22;6444;49.742;6.114;2024-02-28T11:10:54;15.20;99.90
12761;DHT22;6444;49.742;6.114;2024-02-28T11:13:23;15.20;99.90
12761;DHT22;6444;49.742;6.114;2024-02-28T11:15:50;14.20;99.90
12761;DHT22;6444;49.742;6.114;2024-02-28T11:18:16;11.50;99.90
12761;DHT22;6444;49.742;6.114;2024-02-28T11:20:46;10.20;99.90
12761;DHT22;6444;49.742;6.114;2024-02-28T11:23:10;9.70;99.90
12761;DHT22;6444;49.742;6.114;2024-02-28T11:25:37;9.70;99.90
12761;DHT22;6444;49.742;6.114;2024-02-28T11:28:04;9.60;99.90
12761;DHT22;6444;49.742;6.114;2024-02-28T11:30:30;10.30;99.90
12761;DHT22;6444;49.742;6.114;2024-02-28T11:32:57;11.80;99.90
12761;DHT22;6444;49.742;6.114;2024-02-28T11:35:23;12.70;99.90
12761;DHT22;6444;49.742;6.114;2024-02-28T11:37:50;13.40;99.90
12761;DHT22;6444;49.742;6.114;2024-02-28T11:40:17;13.80;99.90
12761;DHT22;6444;49.742;6.114;2024-02-28T11:42:43;13.90;99.90
12761;DHT22;6444;49.742;6.114;2024-02-28T11:45:10;14.00;99.90
12761;DHT22;6444;49.742;6.114;2024-02-28T11:47:37;13.70;99.90
12761;DHT22;6444;49.742;6.114;2024-02-28T11:50:04;13.60;99.90
12761;DHT22;6444;49.742;6.114;2024-02-28T11:52:31;13.70;99.90
12761;DHT22;6444;49.742;6.114;2024-02-28T11:54:58;13.90;99.90
12761;DHT22;6444;49.742;6.114;2024-02-28T11:57:28;14.10;99.90
12761;DHT22;6444;49.742;6.114;2024-02-28T11:59:54;14.00;99.90
12761;DHT22;6444;49.742;6.114;2024-02-28T12:02:22;12.90;99.90
12761;DHT22;6444;49.742;6.114;2024-02-28T12:04:48;12.70;99.90
12761;DHT22;6444;49.742;6.114;2024-02-28T12:07:15;12.80;99.90
12761;DHT22;6444;49.742;6.114;2024-02-28T12:09:42;12.70;99.90
12761;DHT22;6444;49.742;6.114;2024-02-28T12:12:08;12.50;99.90
12761;DHT22;6444;49.742;6.114;2024-02-28T12:14:38;12.80;99.90
12761;DHT22;6444;49.742;6.114;2024-02-28T12:17:05;12.30;99.90
12761;DHT22;6444;49.742;6.114;2024-02-28T12:19:31;12.30;99.90
12761;DHT22;6444;49.742;6.114;2024-02-28T12:21:58;11.60;99.90
12761;DHT22;6444;49.742;6.114;2024-02-28T12:24:25;12.60;99.90
12761;DHT22;6444;49.742;6.114;2024-02-28T12:26:53;12.60;99.90
12761;DHT22;6444;49.742;6.114;2024-02-28T12:29:20;12.70;99.90
12761;DHT22;6444;49.742;6.114;2024-02-28T12:31:46;12.00;99.90
12761;DHT22;6444;49.742;6.114;2024-02-28T12:34:13;11.30;99.90
12761;DHT22;6444;49.742;6.114;2024-02-28T12:36:40;11.40;99.90
12761;DHT22;6444;49.742;6.114;2024-02-28T12:39:06;11.80;99.90
12761;DHT22;6444;49.742;6.114;2024-02-28T12:41:33;11.40;99.90
12761;DHT22;6444;49.742;6.114;2024-02-28T12:44:00;11.80;99.90
12761;DHT22;6444;49.742;6.114;2024-02-28T12:46:26;12.00;99.90
12761;DHT22;6444;49.742;6.114;2024-02-28T12:48:53;12.10;99.90
12761;DHT22;6444;49.742;6.114;2024-02-28T12:51:42;12.60;99.90
12761;DHT22;6444;49.742;6.114;2024-02-28T12:54:08;13.60;99.90
12761;DHT22;6444;49.742;6.114;2024-02-28T12:56:37;12.60;99.90
12761;DHT22;6444;49.742;6.114;2024-02-28T12:59:04;12.00;99.90
12761;DHT22;6444;49.742;6.114;2024-02-28T13:01:30;12.20;99.90
12761;DHT22;6444;49.742;6.114;2024-02-28T13:03:58;12.20;99.90
12761;DHT22;6444;49.742;6.114;2024-02-28T13:06:25;12.20;99.90
12761;DHT22;6444;49.742;6.114;2024-02-28T13:08:51;12.40;99.90
12761;DHT22;6444;49.742;6.114;2024-02-28T13:11:18;12.30;99.90
12761;DHT22;6444;49.742;6.114;2024-02-28T13:13:45;12.00;99.90
12761;DHT22;6444;49.742;6.114;2024-02-28T13:16:11;12.30;99.90
12761;DHT22;6444;49.742;6.114;2024-02-28T13:18:38;12.50;99.90
12761;DHT22;6444;49.742;6.114;2024-02-28T13:21:04;12.30;99.90
12761;DHT22;6444;49.742;6.114;2024-02-28T13:23:31;12.10;99.90
12761;DHT22;6444;49.742;6.114;2024-02-28T13:25:58;12.30;99.90
12761;DHT22;6444;49.742;6.114;2024-02-28T13:28:24;12.90;99.90
12761;DHT22;6444;49.742;6.114;2024-02-28T13:30:51;13.60;99.90
12761;DHT22;6444;49.742;6.114;2024-02-28T13:33:17;13.90;99.90
12761;DHT22;6444;49.742;6.114;2024-02-28T13:35:44;13.40;99.90
12761;DHT22;6444;49.742;6.114;2024-02-28T13:38:11;12.70;99.90
12761;DHT22;6444;49.742;6.114;2024-02-28T13:40:37;12.70;99.90
12761;DHT22;6444;49.742;6.114;2024-02-28T13:43:04;13.00;99.90
12761;DHT22;6444;49.742;6.114;2024-02-28T13:45:31;12.20;99.90
12761;DHT22;6444;49.742;6.114;2024-02-28T13:47:57;12.20;99.90
12761;DHT22;6444;49.742;6.114;2024-02-28T13:50:24;12.30;99.90
12761;DHT22;6444;49.742;6.114;2024-02-28T13:52:51;12.10;99.90
12761;DHT22;6444;49.742;6.114;2024-02-28T13:55:17;12.10;99.90
12761;DHT22;6444;49.742;6.114;2024-02-28T13:57:44;12.80;99.90
12761;DHT22;6444;49.742;6.114;2024-02-28T14:00:11;12.40;99.90
12761;DHT22;6444;49.742;6.114;2024-02-28T14:02:37;12.30;99.90
12761;DHT22;6444;49.742;6.114;2024-02-28T14:05:05;12.10;99.90
12761;DHT22;6444;49.742;6.114;2024-02-28T14:07:32;12.10;99.90
12761;DHT22;6444;49.742;6.114;2024-02-28T14:09:58;12.10;99.90
12761;DHT22;6444;49.742;6.114;2024-02-28T14:12:25;12.10;99.90
12761;DHT22;6444;49.742;6.114;2024-02-28T14:14:52;11.90;99.90
12761;DHT22;6444;49.742;6.114;2024-02-28T14:17:18;11.50;99.90
12761;DHT22;6444;49.742;6.114;2024-02-28T14:19:46;12.00;99.90
12761;DHT22;6444;49.742;6.114;2024-02-28T14:22:12;11.90;99.90
12761;DHT22;6444;49.742;6.114;2024-02-28T14:24:39;12.00;99.90
12761;DHT22;6444;49.742;6.114;2024-02-28T14:27:05;11.70;99.90
12761;DHT22;6444;49.742;6.114;2024-02-28T14:29:32;11.70;99.90
12761;DHT22;6444;49.742;6.114;2024-02-28T14:31:59;11.40;99.90
12761;DHT22;6444;49.742;6.114;2024-02-28T14:34:25;11.60;99.90
12761;DHT22;6444;49.742;6.114;2024-02-28T14:36:52;11.60;99.90
12761;DHT22;6444;49.742;6.114;2024-02-28T14:39:19;11.40;99.90
12761;DHT22;6444;49.742;6.114;2024-02-28T14:41:46;11.30;99.90
12761;DHT22;6444;49.742;6.114;2024-02-28T14:44:13;11.40;99.90
12761;DHT22;6444;49.742;6.114;2024-02-28T14:46:39;11.40;99.90
12761;DHT22;6444;49.742;6.114;2024-02-28T14:49:06;11.20;99.90
12761;DHT22;6444;49.742;6.114;2024-02-28T14:51:33;11.00;99.90
12761;DHT22;6444;49.742;6.114;2024-02-28T14:53:59;10.80;99.90
12761;DHT22;6444;49.742;6.114;2024-02-28T14:56:27;10.70;99.90
12761;DHT22;6444;49.742;6.114;2024-02-28T14:58:56;10.60;99.90
12761;DHT22;6444;49.742;6.114;2024-02-28T15:01:23;10.70;99.90
12761;DHT22;6444;49.742;6.114;2024-02-28T15:03:52;11.00;99.90
12761;DHT22;6444;49.742;6.114;2024-02-28T15:06:19;10.80;99.90
12761;DHT22;6444;49.742;6.114;2024-02-28T15:08:46;10.90;99.90
12761;DHT22;6444;49.742;6.114;2024-02-28T15:11:13;10.90;99.90
12761;DHT22;6444;49.742;6.114;2024-02-28T15:13:39;10.90;99.90
12761;DHT22;6444;49.742;6.114;2024-02-28T15:16:06;10.50;99.90
12761;DHT22;6444;49.742;6.114;2024-02-28T15:18:33;10.50;99.90
12761;DHT22;6444;49.742;6.114;2024-02-28T15:20:59;10.90;99.90
12761;DHT22;6444;49.742;6.114;2024-02-28T15:23:26;10.90;99.90
12761;DHT22;6444;49.742;6.114;2024-02-28T15:25:53;10.70;99.90
12761;DHT22;6444;49.742;6.114;2024-02-28T15:28:20;10.60;99.90
12761;DHT22;6444;49.742;6.114;2024-02-28T15:30:47;10.40;99.90
12761;DHT22;6444;49.742;6.114;2024-02-28T15:33:13;10.40;99.90
12761;DHT22;6444;49.742;6.114;2024-02-28T15:35:40;10.70;99.90
12761;DHT22;6444;49.742;6.114;2024-02-28T15:38:07;10.90;99.90
12761;DHT22;6444;49.742;6.114;2024-02-28T15:40:33;11.30;99.90
12761;DHT22;6444;49.742;6.114;2024-02-28T15:43:00;11.20;99.90
12761;DHT22;6444;49.742;6.114;2024-02-28T15:45:27;11.10;99.90
12761;DHT22;6444;49.742;6.114;2024-02-28T15:47:54;11.10;99.90
12761;DHT22;6444;49.742;6.114;2024-02-28T15:50:20;11.00;99.90